Canovanas, PR

9:31 PM AST on May 28, 2015 (GMT -0400)
Ciudad Jardin | | Change Station
CLOSE
Current Station
Personal Weather Station
Location: Carolina, PR
Elevation: 10 ft
Nearby Weather Stations

Elev 10 ft 18.37 °N, 65.93 °W | Updated 9 minutes ago

Partly Cloudy
Partly Cloudy
80.3 °F
Feels Like 85 °F
N
0.0
Wind Variable Wind from East
Gusts 2.0 mph

Today
High -- | Low -- °F
--% Chance of Precip.
Yesterday
High -- | Low -- °F
Precip. -- in
5:47 AM 6:54 PM
Waxing Gibbous, 80% visible
Pressure 29.99 in
Visibility 10.0 miles
Clouds Few 3500 ft
Heat Index 85 °F
Dew Point 73 °F
Humidity 78%
Rainfall 0.00 in
Snow Depth Not available.
UV 0 out of 12
Pollen Not available.
Air Quality Not available.
Flu Activity Local Activity
METAR TJSJ 290056Z 00000KT 10SM FEW035 28/23 A2999 RMK AO2 SLP155 T02780233

More Conditions Fewer Conditions

Pressure 29.99 in
Visibility 10.0 miles
Clouds Few 3500 ft
Heat Index 85 °F
Dew Point 73 °F
Humidity 78%
Rainfall 0.00 in
Snow Depth Not available.
UV 0 out of 12
Pollen Not available.
Air Quality Not available.
Flu Activity Local Activity
METAR TJSJ 290056Z 00000KT 10SM FEW035 28/23 A2999 RMK AO2 SLP155 T02780233

More Conditions Fewer Conditions

10-Day Weather Forecast

Almanac

Astronomy

May. 28, 2015 Rise Set
Actual Time
Civil Twilight
Nautical Twilight
Astronomical Twilight
Moon
Length of Visible Light
Length of Day
Tomorrow will be .
, % of the Moon is Illuminated

Today's Extremes

State Highs State Lows

Community

WunderPhotos

Upload Photos

1,825,111 photos uploaded!

WunderBlogs® & News

Nearby

Air Quality

  Air Quality AQ Index Pollutant
Not available.

Snow Depth

Station Depth Elevation

Earthquake Activity

City Distance Mag. Time & Date
Minimum magnitude displayed is 2.5.

Coastal Water Temperatures

Place Temperature

Stations

Nearby Weather Stations

Station Location Temp. Windchill Dew Point Humidity Wind Precip. Elev Updated Type